sensor_id;sensor_type;location;lat;lon;timestamp;temperature;humidity
10968;DHT22;5536;49.602;10.980;2023-11-22T00:01:20;5.30;99.90
10968;DHT22;5536;49.602;10.980;2023-11-22T00:03:46;5.20;99.90
10968;DHT22;5536;49.602;10.980;2023-11-22T00:06:13;5.20;99.90
10968;DHT22;5536;49.602;10.980;2023-11-22T00:08:40;5.20;99.90
10968;DHT22;5536;49.602;10.980;2023-11-22T00:11:07;5.10;99.90
10968;DHT22;5536;49.602;10.980;2023-11-22T00:13:34;5.20;99.90
10968;DHT22;5536;49.602;10.980;2023-11-22T00:16:03;5.20;99.90
10968;DHT22;5536;49.602;10.980;2023-11-22T00:18:30;5.10;99.90
10968;DHT22;5536;49.602;10.980;2023-11-22T00:20:57;5.10;99.90
10968;DHT22;5536;49.602;10.980;2023-11-22T00:23:25;5.00;99.90
10968;DHT22;5536;49.602;10.980;2023-11-22T00:25:55;4.90;99.90
10968;DHT22;5536;49.602;10.980;2023-11-22T00:28:23;4.80;99.90
10968;DHT22;5536;49.602;10.980;2023-11-22T00:30:50;4.80;99.90
10968;DHT22;5536;49.602;10.980;2023-11-22T00:33:18;4.70;99.90
10968;DHT22;5536;49.602;10.980;2023-11-22T00:35:45;4.70;99.90
10968;DHT22;5536;49.602;10.980;2023-11-22T00:38:12;4.60;99.90
10968;DHT22;5536;49.602;10.980;2023-11-22T00:40:39;4.60;99.90
10968;DHT22;5536;49.602;10.980;2023-11-22T00:43:06;4.60;99.90
10968;DHT22;5536;49.602;10.980;2023-11-22T00:45:34;4.60;99.90
10968;DHT22;5536;49.602;10.980;2023-11-22T00:48:01;4.50;99.90
10968;DHT22;5536;49.602;10.980;2023-11-22T00:50:32;4.60;99.90
10968;DHT22;5536;49.602;10.980;2023-11-22T00:52:59;4.50;99.90
10968;DHT22;5536;49.602;10.980;2023-11-22T00:55:25;4.50;99.90
10968;DHT22;5536;49.602;10.980;2023-11-22T00:57:53;4.50;99.90
10968;DHT22;5536;49.602;10.980;2023-11-22T01:00:22;4.50;99.90
10968;DHT22;5536;49.602;10.980;2023-11-22T01:02:49;4.50;99.90
10968;DHT22;5536;49.602;10.980;2023-11-22T01:05:16;4.40;99.90
10968;DHT22;5536;49.602;10.980;2023-11-22T01:07:44;4.40;99.90
10968;DHT22;5536;49.602;10.980;2023-11-22T01:10:11;4.30;99.90
10968;DHT22;5536;49.602;10.980;2023-11-22T01:12:38;4.30;99.90
10968;DHT22;5536;49.602;10.980;2023-11-22T01:15:06;4.30;99.90
10968;DHT22;5536;49.602;10.980;2023-11-22T01:17:34;4.40;99.90
10968;DHT22;5536;49.602;10.980;2023-11-22T01:20:01;4.40;99.90
10968;DHT22;5536;49.602;10.980;2023-11-22T01:22:29;4.40;99.90
10968;DHT22;5536;49.602;10.980;2023-11-22T01:24:58;4.30;99.90
10968;DHT22;5536;49.602;10.980;2023-11-22T01:27:25;4.30;99.90
10968;DHT22;5536;49.602;10.980;2023-11-22T01:29:51;4.30;99.90
10968;DHT22;5536;49.602;10.980;2023-11-22T01:32:19;4.30;99.90
10968;DHT22;5536;49.602;10.980;2023-11-22T01:34:46;4.30;99.90
10968;DHT22;5536;49.602;10.980;2023-11-22T01:37:13;4.20;99.90
10968;DHT22;5536;49.602;10.980;2023-11-22T01:39:41;4.20;99.90
10968;DHT22;5536;49.602;10.980;2023-11-22T01:42:10;4.20;99.90
10968;DHT22;5536;49.602;10.980;2023-11-22T01:44:37;4.20;99.90
10968;DHT22;5536;49.602;10.980;2023-11-22T01:47:04;4.20;99.90
10968;DHT22;5536;49.602;10.980;2023-11-22T01:49:32;4.30;99.90
10968;DHT22;5536;49.602;10.980;2023-11-22T01:51:59;4.30;99.90
10968;DHT22;5536;49.602;10.980;2023-11-22T01:54:27;4.30;99.90
10968;DHT22;5536;49.602;10.980;2023-11-22T01:56:55;4.30;99.90
10968;DHT22;5536;49.602;10.980;2023-11-22T01:59:25;4.20;99.90
10968;DHT22;5536;49.602;10.980;2023-11-22T02:01:53;4.30;99.90
10968;DHT22;5536;49.602;10.980;2023-11-22T02:04:20;4.30;99.90
10968;DHT22;5536;49.602;10.980;2023-11-22T02:06:48;4.30;99.90
10968;DHT22;5536;49.602;10.980;2023-11-22T02:09:16;4.20;99.90
10968;DHT22;5536;49.602;10.980;2023-11-22T02:11:44;4.10;99.90
10968;DHT22;5536;49.602;10.980;2023-11-22T02:14:13;4.20;99.90
10968;DHT22;5536;49.602;10.980;2023-11-22T02:16:43;4.20;99.90
10968;DHT22;5536;49.602;10.980;2023-11-22T02:19:15;4.10;99.90
10968;DHT22;5536;49.602;10.980;2023-11-22T02:21:42;4.10;99.90
10968;DHT22;5536;49.602;10.980;2023-11-22T02:24:10;4.10;99.90
10968;DHT22;5536;49.602;10.980;2023-11-22T02:26:37;4.10;99.90
10968;DHT22;5536;49.602;10.980;2023-11-22T02:29:04;4.10;99.90
10968;DHT22;5536;49.602;10.980;2023-11-22T02:31:34;4.10;99.90
10968;DHT22;5536;49.602;10.980;2023-11-22T02:34:00;4.10;99.90
10968;DHT22;5536;49.602;10.980;2023-11-22T02:36:27;4.00;99.90
10968;DHT22;5536;49.602;10.980;2023-11-22T02:38:54;4.00;99.90
10968;DHT22;5536;49.602;10.980;2023-11-22T02:41:23;4.00;99.90
10968;DHT22;5536;49.602;10.980;2023-11-22T02:43:51;4.00;99.90
10968;DHT22;5536;49.602;10.980;2023-11-22T02:46:17;4.00;99.90
10968;DHT22;5536;49.602;10.980;2023-11-22T02:48:45;4.00;99.90
10968;DHT22;5536;49.602;10.980;2023-11-22T02:51:11;4.00;99.90
10968;DHT22;5536;49.602;10.980;2023-11-22T02:53:39;4.00;99.90
10968;DHT22;5536;49.602;10.980;2023-11-22T02:56:09;4.00;99.90
10968;DHT22;5536;49.602;10.980;2023-11-22T02:58:37;4.00;99.90
10968;DHT22;5536;49.602;10.980;2023-11-22T03:01:04;4.00;99.90
10968;DHT22;5536;49.602;10.980;2023-11-22T03:03:33;3.90;99.90
10968;DHT22;5536;49.602;10.980;2023-11-22T03:06:00;3.90;99.90
10968;DHT22;5536;49.602;10.980;2023-11-22T03:08:27;4.00;99.90
10968;DHT22;5536;49.602;10.980;2023-11-22T03:10:54;4.00;99.90
10968;DHT22;5536;49.602;10.980;2023-11-22T03:13:21;4.00;99.90
10968;DHT22;5536;49.602;10.980;2023-11-22T03:15:49;3.90;99.90
10968;DHT22;5536;49.602;10.980;2023-11-22T03:18:17;3.90;99.90
10968;DHT22;5536;49.602;10.980;2023-11-22T03:20:45;3.90;99.90
10968;DHT22;5536;49.602;10.980;2023-11-22T03:23:12;3.90;99.90
10968;DHT22;5536;49.602;10.980;2023-11-22T03:25:42;3.80;99.90
10968;DHT22;5536;49.602;10.980;2023-11-22T03:28:09;3.90;99.90
10968;DHT22;5536;49.602;10.980;2023-11-22T03:30:39;3.90;99.90
10968;DHT22;5536;49.602;10.980;2023-11-22T03:33:08;3.80;99.90
10968;DHT22;5536;49.602;10.980;2023-11-22T03:35:37;3.80;99.90
10968;DHT22;5536;49.602;10.980;2023-11-22T03:38:05;3.80;99.90
10968;DHT22;5536;49.602;10.980;2023-11-22T03:40:35;3.80;99.90
10968;DHT22;5536;49.602;10.980;2023-11-22T03:43:02;3.70;99.90
10968;DHT22;5536;49.602;10.980;2023-11-22T03:45:29;3.80;99.90
10968;DHT22;5536;49.602;10.980;2023-11-22T03:47:56;3.80;99.90
10968;DHT22;5536;49.602;10.980;2023-11-22T03:50:24;3.80;99.90
10968;DHT22;5536;49.602;10.980;2023-11-22T03:52:51;3.80;99.90
10968;DHT22;5536;49.602;10.980;2023-11-22T03:55:18;3.80;99.90
10968;DHT22;5536;49.602;10.980;2023-11-22T03:57:45;3.80;99.90
10968;DHT22;5536;49.602;10.980;2023-11-22T04:00:13;3.70;99.90
10968;DHT22;5536;49.602;10.980;2023-11-22T04:02:40;3.80;99.90
10968;DHT22;5536;49.602;10.980;2023-11-22T04:05:08;3.70;99.90
10968;DHT22;5536;49.602;10.980;2023-11-22T04:07:38;3.70;99.90
10968;DHT22;5536;49.602;10.980;2023-11-22T04:10:05;3.70;99.90
10968;DHT22;5536;49.602;10.980;2023-11-22T04:12:32;3.70;99.90
10968;DHT22;5536;49.602;10.980;2023-11-22T04:14:59;3.80;99.90
10968;DHT22;5536;49.602;10.980;2023-11-22T04:17:26;3.80;99.90
10968;DHT22;5536;49.602;10.980;2023-11-22T04:19:53;3.80;99.90
10968;DHT22;5536;49.602;10.980;2023-11-22T04:22:20;3.80;99.90
10968;DHT22;5536;49.602;10.980;2023-11-22T04:24:48;3.70;99.90
10968;DHT22;5536;49.602;10.980;2023-11-22T04:27:15;3.70;99.90
10968;DHT22;5536;49.602;10.980;2023-11-22T04:29:42;3.70;99.90
10968;DHT22;5536;49.602;10.980;2023-11-22T04:32:09;3.70;99.90
10968;DHT22;5536;49.602;10.980;2023-11-22T04:34:36;3.70;99.90
10968;DHT22;5536;49.602;10.980;2023-11-22T04:37:03;3.70;99.90
10968;DHT22;5536;49.602;10.980;2023-11-22T04:39:31;3.60;99.90
10968;DHT22;5536;49.602;10.980;2023-11-22T04:41:59;3.60;99.90
10968;DHT22;5536;49.602;10.980;2023-11-22T04:44:26;3.60;99.90
10968;DHT22;5536;49.602;10.980;2023-11-22T04:46:53;3.60;99.90
10968;DHT22;5536;49.602;10.980;2023-11-22T04:49:20;3.60;99.90
10968;DHT22;5536;49.602;10.980;2023-11-22T04:51:47;3.50;99.90
10968;DHT22;5536;49.602;10.980;2023-11-22T04:54:15;3.60;99.90
10968;DHT22;5536;49.602;10.980;2023-11-22T04:56:42;3.60;99.90
10968;DHT22;5536;49.602;10.980;2023-11-22T04:59:11;3.70;99.90
10968;DHT22;5536;49.602;10.980;2023-11-22T05:01:41;3.70;99.90
10968;DHT22;5536;49.602;10.980;2023-11-22T05:04:08;3.70;99.90
10968;DHT22;5536;49.602;10.980;2023-11-22T05:06:35;3.70;99.90
10968;DHT22;5536;49.602;10.980;2023-11-22T05:09:03;3.70;99.90
10968;DHT22;5536;49.602;10.980;2023-11-22T05:11:31;3.60;99.90
10968;DHT22;5536;49.602;10.980;2023-11-22T05:13:58;3.60;99.90
10968;DHT22;5536;49.602;10.980;2023-11-22T05:16:26;3.50;99.90
10968;DHT22;5536;49.602;10.980;2023-11-22T05:18:53;3.50;99.90
10968;DHT22;5536;49.602;10.980;2023-11-22T05:21:20;3.50;99.90
10968;DHT22;5536;49.602;10.980;2023-11-22T05:23:47;3.50;99.90
10968;DHT22;5536;49.602;10.980;2023-11-22T05:26:14;3.50;99.90
10968;DHT22;5536;49.602;10.980;2023-11-22T05:28:41;3.50;99.90
10968;DHT22;5536;49.602;10.980;2023-11-22T05:31:08;3.50;99.90
10968;DHT22;5536;49.602;10.980;2023-11-22T05:33:37;3.40;99.90
10968;DHT22;5536;49.602;10.980;2023-11-22T05:36:06;3.40;99.90
10968;DHT22;5536;49.602;10.980;2023-11-22T05:38:33;3.40;99.90
10968;DHT22;5536;49.602;10.980;2023-11-22T05:40:59;3.50;99.90
10968;DHT22;5536;49.602;10.980;2023-11-22T05:43:26;3.40;99.90
10968;DHT22;5536;49.602;10.980;2023-11-22T05:45:53;3.40;99.90
10968;DHT22;5536;49.602;10.980;2023-11-22T05:48:20;3.40;99.90
10968;DHT22;5536;49.602;10.980;2023-11-22T05:50:49;3.40;99.90
10968;DHT22;5536;49.602;10.980;2023-11-22T05:53:16;3.30;99.90
10968;DHT22;5536;49.602;10.980;2023-11-22T05:55:45;3.30;99.90
10968;DHT22;5536;49.602;10.980;2023-11-22T05:58:13;3.30;99.90
10968;DHT22;5536;49.602;10.980;2023-11-22T06:00:42;3.30;99.90
10968;DHT22;5536;49.602;10.980;2023-11-22T06:03:09;3.30;99.90
10968;DHT22;5536;49.602;10.980;2023-11-22T06:05:36;3.30;99.90
10968;DHT22;5536;49.602;10.980;2023-11-22T06:08:05;3.30;99.90
10968;DHT22;5536;49.602;10.980;2023-11-22T06:10:32;3.30;99.90
10968;DHT22;5536;49.602;10.980;2023-11-22T06:12:59;3.30;99.90
10968;DHT22;5536;49.602;10.980;2023-11-22T06:15:26;3.30;99.90
10968;DHT22;5536;49.602;10.980;2023-11-22T06:17:53;3.20;99.90
10968;DHT22;5536;49.602;10.980;2023-11-22T06:20:20;3.20;99.90
10968;DHT22;5536;49.602;10.980;2023-11-22T06:22:49;3.20;99.90
10968;DHT22;5536;49.602;10.980;2023-11-22T06:25:18;3.20;99.90
10968;DHT22;5536;49.602;10.980;2023-11-22T06:27:45;3.20;99.90
10968;DHT22;5536;49.602;10.980;2023-11-22T06:30:12;3.20;99.90
10968;DHT22;5536;49.602;10.980;2023-11-22T06:32:40;3.20;99.90
10968;DHT22;5536;49.602;10.980;2023-11-22T06:35:09;3.20;99.90
10968;DHT22;5536;49.602;10.980;2023-11-22T06:37:37;3.20;99.90
10968;DHT22;5536;49.602;10.980;2023-11-22T06:40:05;3.20;99.90
10968;DHT22;5536;49.602;10.980;2023-11-22T06:42:33;3.10;99.90
10968;DHT22;5536;49.602;10.980;2023-11-22T06:45:01;3.20;99.90
10968;DHT22;5536;49.602;10.980;2023-11-22T06:47:28;3.10;99.90
10968;DHT22;5536;49.602;10.980;2023-11-22T06:49:55;3.10;99.90
10968;DHT22;5536;49.602;10.980;2023-11-22T06:52:22;3.10;99.90
10968;DHT22;5536;49.602;10.980;2023-11-22T06:54:48;3.10;99.90
10968;DHT22;5536;49.602;10.980;2023-11-22T06:57:15;3.10;99.90
10968;DHT22;5536;49.602;10.980;2023-11-22T06:59:44;3.10;99.90
10968;DHT22;5536;49.602;10.980;2023-11-22T07:02:11;3.10;99.90
10968;DHT22;5536;49.602;10.980;2023-11-22T07:04:39;3.00;99.90
10968;DHT22;5536;49.602;10.980;2023-11-22T07:07:06;3.00;99.90
10968;DHT22;5536;49.602;10.980;2023-11-22T07:09:36;3.10;99.90
10968;DHT22;5536;49.602;10.980;2023-11-22T07:12:05;3.10;99.90
10968;DHT22;5536;49.602;10.980;2023-11-22T07:14:33;3.10;99.90
10968;DHT22;5536;49.602;10.980;2023-11-22T07:17:01;3.10;99.90
10968;DHT22;5536;49.602;10.980;2023-11-22T07:19:28;3.10;99.90
10968;DHT22;5536;49.602;10.980;2023-11-22T07:21:55;3.10;99.90
10968;DHT22;5536;49.602;10.980;2023-11-22T07:24:23;3.20;99.90
10968;DHT22;5536;49.602;10.980;2023-11-22T07:26:50;3.20;99.90
10968;DHT22;5536;49.602;10.980;2023-11-22T07:29:17;3.20;99.90
10968;DHT22;5536;49.602;10.980;2023-11-22T07:31:44;3.10;99.90
10968;DHT22;5536;49.602;10.980;2023-11-22T07:34:13;3.10;99.90
10968;DHT22;5536;49.602;10.980;2023-11-22T07:36:40;3.10;99.90
10968;DHT22;5536;49.602;10.980;2023-11-22T07:39:06;3.20;99.90
10968;DHT22;5536;49.602;10.980;2023-11-22T07:41:34;3.20;99.90
10968;DHT22;5536;49.602;10.980;2023-11-22T07:44:01;3.20;99.90
10968;DHT22;5536;49.602;10.980;2023-11-22T07:46:28;3.20;99.90
10968;DHT22;5536;49.602;10.980;2023-11-22T07:48:55;3.20;99.90
10968;DHT22;5536;49.602;10.980;2023-11-22T07:51:24;3.20;99.90
10968;DHT22;5536;49.602;10.980;2023-11-22T07:53:53;3.10;99.90
10968;DHT22;5536;49.602;10.980;2023-11-22T07:56:21;3.10;99.90
10968;DHT22;5536;49.602;10.980;2023-11-22T07:58:48;3.10;99.90
10968;DHT22;5536;49.602;10.980;2023-11-22T08:01:15;3.00;99.90
10968;DHT22;5536;49.602;10.980;2023-11-22T08:03:43;3.00;99.90
10968;DHT22;5536;49.602;10.980;2023-11-22T08:06:11;3.00;99.90
10968;DHT22;5536;49.602;10.980;2023-11-22T08:08:40;3.00;99.90
10968;DHT22;5536;49.602;10.980;2023-11-22T08:11:07;2.90;99.90
10968;DHT22;5536;49.602;10.980;2023-11-22T08:13:41;2.90;99.90
10968;DHT22;5536;49.602;10.980;2023-11-22T08:16:10;2.80;99.90
10968;DHT22;5536;49.602;10.980;2023-11-22T08:18:38;2.90;99.90
10968;DHT22;5536;49.602;10.980;2023-11-22T08:21:06;2.80;99.90
10968;DHT22;5536;49.602;10.980;2023-11-22T08:23:33;2.90;99.90
10968;DHT22;5536;49.602;10.980;2023-11-22T08:26:02;2.80;99.90
10968;DHT22;5536;49.602;10.980;2023-11-22T08:28:30;2.90;99.90
10968;DHT22;5536;49.602;10.980;2023-11-22T08:30:57;2.90;99.90
10968;DHT22;5536;49.602;10.980;2023-11-22T08:33:24;2.80;99.90
10968;DHT22;5536;49.602;10.980;2023-11-22T08:35:51;2.80;99.90
10968;DHT22;5536;49.602;10.980;2023-11-22T08:38:24;2.80;99.90
10968;DHT22;5536;49.602;10.980;2023-11-22T08:40:51;2.80;99.90
10968;DHT22;5536;49.602;10.980;2023-11-22T08:43:19;2.90;99.90
10968;DHT22;5536;49.602;10.980;2023-11-22T08:45:48;2.90;99.90
10968;DHT22;5536;49.602;10.980;2023-11-22T08:48:15;2.90;99.90
10968;DHT22;5536;49.602;10.980;2023-11-22T08:50:43;3.00;99.90
10968;DHT22;5536;49.602;10.980;2023-11-22T08:53:10;3.00;99.90
10968;DHT22;5536;49.602;10.980;2023-11-22T08:55:38;3.00;99.90
10968;DHT22;5536;49.602;10.980;2023-11-22T08:58:05;3.00;99.90
10968;DHT22;5536;49.602;10.980;2023-11-22T09:00:35;3.10;99.90
10968;DHT22;5536;49.602;10.980;2023-11-22T09:03:02;3.10;99.90
10968;DHT22;5536;49.602;10.980;2023-11-22T09:05:29;3.10;99.90
10968;DHT22;5536;49.602;10.980;2023-11-22T09:07:56;3.10;99.90
10968;DHT22;5536;49.602;10.980;2023-11-22T09:10:24;3.00;99.90
10968;DHT22;5536;49.602;10.980;2023-11-22T09:12:52;3.00;99.90
10968;DHT22;5536;49.602;10.980;2023-11-22T09:15:19;3.00;99.90
10968;DHT22;5536;49.602;10.980;2023-11-22T09:17:53;3.00;99.90
10968;DHT22;5536;49.602;10.980;2023-11-22T09:20:20;3.00;99.90
10968;DHT22;5536;49.602;10.980;2023-11-22T09:22:50;3.00;99.90
10968;DHT22;5536;49.602;10.980;2023-11-22T09:25:18;3.00;99.90
10968;DHT22;5536;49.602;10.980;2023-11-22T09:27:45;3.10;99.90
10968;DHT22;5536;49.602;10.980;2023-11-22T09:30:15;2.90;99.90
10968;DHT22;5536;49.602;10.980;2023-11-22T09:32:59;2.90;99.90
10968;DHT22;5536;49.602;10.980;2023-11-22T09:35:26;2.90;99.90
10968;DHT22;5536;49.602;10.980;2023-11-22T09:37:55;3.00;99.90
10968;DHT22;5536;49.602;10.980;2023-11-22T09:40:23;3.00;99.90
10968;DHT22;5536;49.602;10.980;2023-11-22T09:42:50;3.00;99.90
10968;DHT22;5536;49.602;10.980;2023-11-22T09:45:19;3.00;99.90
10968;DHT22;5536;49.602;10.980;2023-11-22T09:47:47;3.00;99.90
10968;DHT22;5536;49.602;10.980;2023-11-22T09:50:19;3.10;99.90
10968;DHT22;5536;49.602;10.980;2023-11-22T09:52:47;3.10;99.90
10968;DHT22;5536;49.602;10.980;2023-11-22T09:55:16;3.10;99.90
10968;DHT22;5536;49.602;10.980;2023-11-22T09:57:44;3.00;99.90
10968;DHT22;5536;49.602;10.980;2023-11-22T10:00:12;2.80;99.90
10968;DHT22;5536;49.602;10.980;2023-11-22T10:02:40;3.00;99.90
10968;DHT22;5536;49.602;10.980;2023-11-22T10:05:07;3.10;99.90
10968;DHT22;5536;49.602;10.980;2023-11-22T10:07:36;3.20;99.90
10968;DHT22;5536;49.602;10.980;2023-11-22T10:10:05;3.30;99.90
10968;DHT22;5536;49.602;10.980;2023-11-22T10:12:36;3.20;99.90
10968;DHT22;5536;49.602;10.980;2023-11-22T10:15:13;3.30;99.90
10968;DHT22;5536;49.602;10.980;2023-11-22T10:17:47;3.20;99.90
10968;DHT22;5536;49.602;10.980;2023-11-22T10:20:15;3.30;99.90
10968;DHT22;5536;49.602;10.980;2023-11-22T10:22:46;3.30;99.90
10968;DHT22;5536;49.602;10.980;2023-11-22T10:25:13;3.40;99.90
10968;DHT22;5536;49.602;10.980;2023-11-22T10:27:44;3.50;99.90
10968;DHT22;5536;49.602;10.980;2023-11-22T10:30:12;3.50;99.90
10968;DHT22;5536;49.602;10.980;2023-11-22T10:32:41;3.60;99.90
10968;DHT22;5536;49.602;10.980;2023-11-22T10:35:08;3.70;99.90
10968;DHT22;5536;49.602;10.980;2023-11-22T10:37:35;3.70;99.90
10968;DHT22;5536;49.602;10.980;2023-11-22T10:40:05;3.70;99.90
10968;DHT22;5536;49.602;10.980;2023-11-22T10:42:35;3.70;99.90
10968;DHT22;5536;49.602;10.980;2023-11-22T10:45:04;3.80;99.90
10968;DHT22;5536;49.602;10.980;2023-11-22T10:47:36;3.70;99.90
10968;DHT22;5536;49.602;10.980;2023-11-22T10:50:05;3.70;99.90
10968;DHT22;5536;49.602;10.980;2023-11-22T10:52:35;3.60;99.90
10968;DHT22;5536;49.602;10.980;2023-11-22T10:55:05;3.50;99.90
10968;DHT22;5536;49.602;10.980;2023-11-22T10:57:40;3.50;99.90
10968;DHT22;5536;49.602;10.980;2023-11-22T11:00:12;3.70;99.90
10968;DHT22;5536;49.602;10.980;2023-11-22T11:02:45;3.80;99.90
10968;DHT22;5536;49.602;10.980;2023-11-22T11:05:21;3.90;99.90
10968;DHT22;5536;49.602;10.980;2023-11-22T11:07:59;3.80;99.90
10968;DHT22;5536;49.602;10.980;2023-11-22T11:10:28;3.80;99.90
10968;DHT22;5536;49.602;10.980;2023-11-22T11:12:56;3.70;99.90
10968;DHT22;5536;49.602;10.980;2023-11-22T11:15:24;3.70;99.90
10968;DHT22;5536;49.602;10.980;2023-11-22T11:17:54;3.80;99.90
10968;DHT22;5536;49.602;10.980;2023-11-22T11:20:23;3.80;99.90
10968;DHT22;5536;49.602;10.980;2023-11-22T11:22:50;3.80;99.90
10968;DHT22;5536;49.602;10.980;2023-11-22T11:25:19;3.70;99.90
10968;DHT22;5536;49.602;10.980;2023-11-22T11:27:57;3.50;99.90
10968;DHT22;5536;49.602;10.980;2023-11-22T11:30:44;3.50;99.90
10968;DHT22;5536;49.602;10.980;2023-11-22T11:33:15;3.40;99.90
10968;DHT22;5536;49.602;10.980;2023-11-22T11:35:46;3.50;99.90
10968;DHT22;5536;49.602;10.980;2023-11-22T11:38:13;3.50;99.90
10968;DHT22;5536;49.602;10.980;2023-11-22T11:40:43;3.60;99.90
10968;DHT22;5536;49.602;10.980;2023-11-22T11:43:13;3.60;99.90
10968;DHT22;5536;49.602;10.980;2023-11-22T11:45:42;3.50;99.90
10968;DHT22;5536;49.602;10.980;2023-11-22T11:48:12;3.40;99.90
10968;DHT22;5536;49.602;10.980;2023-11-22T11:50:40;3.50;99.90
10968;DHT22;5536;49.602;10.980;2023-11-22T11:53:07;3.40;99.90
10968;DHT22;5536;49.602;10.980;2023-11-22T11:55:34;3.40;99.90
10968;DHT22;5536;49.602;10.980;2023-11-22T11:58:05;3.40;99.90
10968;DHT22;5536;49.602;10.980;2023-11-22T12:00:36;3.40;99.90
10968;DHT22;5536;49.602;10.980;2023-11-22T12:03:06;3.40;99.90
10968;DHT22;5536;49.602;10.980;2023-11-22T12:05:35;3.40;99.90
10968;DHT22;5536;49.602;10.980;2023-11-22T12:08:02;3.30;99.90
10968;DHT22;5536;49.602;10.980;2023-11-22T12:10:31;3.20;99.90
10968;DHT22;5536;49.602;10.980;2023-11-22T12:12:58;3.30;99.90
10968;DHT22;5536;49.602;10.980;2023-11-22T12:15:25;3.30;99.90
10968;DHT22;5536;49.602;10.980;2023-11-22T12:17:55;3.40;99.90
10968;DHT22;5536;49.602;10.980;2023-11-22T12:20:23;3.30;99.90
10968;DHT22;5536;49.602;10.980;2023-11-22T12:22:52;3.30;99.90
10968;DHT22;5536;49.602;10.980;2023-11-22T12:25:19;3.30;99.90
10968;DHT22;5536;49.602;10.980;2023-11-22T12:27:46;3.30;99.90
10968;DHT22;5536;49.602;10.980;2023-11-22T12:30:30;3.40;99.90
10968;DHT22;5536;49.602;10.980;2023-11-22T12:33:00;3.50;99.90
10968;DHT22;5536;49.602;10.980;2023-11-22T12:35:29;3.40;99.90
10968;DHT22;5536;49.602;10.980;2023-11-22T12:37:56;3.50;99.90
10968;DHT22;5536;49.602;10.980;2023-11-22T12:40:27;3.40;99.90
10968;DHT22;5536;49.602;10.980;2023-11-22T12:42:56;3.40;99.90
10968;DHT22;5536;49.602;10.980;2023-11-22T12:45:25;3.40;99.90
10968;DHT22;5536;49.602;10.980;2023-11-22T12:47:54;3.40;99.90
10968;DHT22;5536;49.602;10.980;2023-11-22T12:50:33;3.30;99.90
10968;DHT22;5536;49.602;10.980;2023-11-22T12:53:08;3.20;99.90
10968;DHT22;5536;49.602;10.980;2023-11-22T12:55:38;3.20;99.90
10968;DHT22;5536;49.602;10.980;2023-11-22T12:58:08;3.30;99.90
10968;DHT22;5536;49.602;10.980;2023-11-22T13:00:38;3.20;99.90
10968;DHT22;5536;49.602;10.980;2023-11-22T13:03:06;3.10;99.90
10968;DHT22;5536;49.602;10.980;2023-11-22T13:05:34;3.10;99.90
10968;DHT22;5536;49.602;10.980;2023-11-22T13:08:02;3.10;99.90
10968;DHT22;5536;49.602;10.980;2023-11-22T13:10:29;3.10;99.90
10968;DHT22;5536;49.602;10.980;2023-11-22T13:12:56;3.10;99.90
10968;DHT22;5536;49.602;10.980;2023-11-22T13:15:24;3.20;99.90
10968;DHT22;5536;49.602;10.980;2023-11-22T13:17:51;3.20;99.90
10968;DHT22;5536;49.602;10.980;2023-11-22T13:20:22;3.30;99.90
10968;DHT22;5536;49.602;10.980;2023-11-22T13:22:52;3.30;99.90
10968;DHT22;5536;49.602;10.980;2023-11-22T13:25:20;3.30;99.90
10968;DHT22;5536;49.602;10.980;2023-11-22T13:27:48;3.30;99.90
10968;DHT22;5536;49.602;10.980;2023-11-22T13:30:15;3.30;99.90
10968;DHT22;5536;49.602;10.980;2023-11-22T13:32:45;3.40;99.90
10968;DHT22;5536;49.602;10.980;2023-11-22T13:35:13;3.40;99.90
10968;DHT22;5536;49.602;10.980;2023-11-22T13:37:43;3.40;99.90
10968;DHT22;5536;49.602;10.980;2023-11-22T13:40:13;3.40;99.90
10968;DHT22;5536;49.602;10.980;2023-11-22T13:42:45;3.40;99.90
10968;DHT22;5536;49.602;10.980;2023-11-22T13:45:12;3.40;99.90
10968;DHT22;5536;49.602;10.980;2023-11-22T13:47:43;3.40;99.90
10968;DHT22;5536;49.602;10.980;2023-11-22T13:50:12;3.60;99.90
10968;DHT22;5536;49.602;10.980;2023-11-22T13:52:44;3.70;99.90
10968;DHT22;5536;49.602;10.980;2023-11-22T13:55:12;3.60;99.90
10968;DHT22;5536;49.602;10.980;2023-11-22T13:57:39;3.60;99.90
10968;DHT22;5536;49.602;10.980;2023-11-22T14:00:08;3.30;99.90
10968;DHT22;5536;49.602;10.980;2023-11-22T14:02:44;3.40;99.90
10968;DHT22;5536;49.602;10.980;2023-11-22T14:05:11;3.40;99.90
10968;DHT22;5536;49.602;10.980;2023-11-22T14:07:38;3.50;99.90
10968;DHT22;5536;49.602;10.980;2023-11-22T14:10:06;3.50;99.90
10968;DHT22;5536;49.602;10.980;2023-11-22T14:12:35;3.40;99.90
10968;DHT22;5536;49.602;10.980;2023-11-22T14:15:03;3.30;99.90
10968;DHT22;5536;49.602;10.980;2023-11-22T14:17:31;3.30;99.90
10968;DHT22;5536;49.602;10.980;2023-11-22T14:19:58;3.30;99.90
10968;DHT22;5536;49.602;10.980;2023-11-22T14:22:25;3.30;99.90
10968;DHT22;5536;49.602;10.980;2023-11-22T14:24:53;3.40;99.90
10968;DHT22;5536;49.602;10.980;2023-11-22T14:27:20;3.30;99.90
10968;DHT22;5536;49.602;10.980;2023-11-22T14:29:48;3.30;99.90
10968;DHT22;5536;49.602;10.980;2023-11-22T14:32:16;3.30;99.90
10968;DHT22;5536;49.602;10.980;2023-11-22T14:34:45;3.30;99.90
10968;DHT22;5536;49.602;10.980;2023-11-22T14:37:13;3.20;99.90
10968;DHT22;5536;49.602;10.980;2023-11-22T14:39:41;3.30;99.90
10968;DHT22;5536;49.602;10.980;2023-11-22T14:42:12;3.20;99.90
10968;DHT22;5536;49.602;10.980;2023-11-22T14:44:39;3.30;99.90
10968;DHT22;5536;49.602;10.980;2023-11-22T14:47:07;3.20;99.90
10968;DHT22;5536;49.602;10.980;2023-11-22T14:49:41;3.30;99.90
10968;DHT22;5536;49.602;10.980;2023-11-22T14:52:08;3.40;99.90
10968;DHT22;5536;49.602;10.980;2023-11-22T14:54:38;3.30;99.90
10968;DHT22;5536;49.602;10.980;2023-11-22T14:57:05;3.40;99.90
10968;DHT22;5536;49.602;10.980;2023-11-22T14:59:34;3.40;99.90
10968;DHT22;5536;49.602;10.980;2023-11-22T15:02:02;3.40;99.90
10968;DHT22;5536;49.602;10.980;2023-11-22T15:04:31;3.30;99.90
10968;DHT22;5536;49.602;10.980;2023-11-22T15:07:00;3.40;99.90
10968;DHT22;5536;49.602;10.980;2023-11-22T15:09:27;3.40;99.90
10968;DHT22;5536;49.602;10.980;2023-11-22T15:11:55;3.40;99.90
10968;DHT22;5536;49.602;10.980;2023-11-22T15:14:22;3.40;99.90
10968;DHT22;5536;49.602;10.980;2023-11-22T15:16:52;3.40;99.90
10968;DHT22;5536;49.602;10.980;2023-11-22T15:19:20;3.30;99.90
10968;DHT22;5536;49.602;10.980;2023-11-22T15:21:51;3.20;99.90
10968;DHT22;5536;49.602;10.980;2023-11-22T15:24:19;3.10;99.90
10968;DHT22;5536;49.602;10.980;2023-11-22T15:26:46;3.00;99.90
10968;DHT22;5536;49.602;10.980;2023-11-22T15:29:13;3.00;99.90
10968;DHT22;5536;49.602;10.980;2023-11-22T15:31:42;2.90;99.90
10968;DHT22;5536;49.602;10.980;2023-11-22T15:34:10;3.00;99.90
10968;DHT22;5536;49.602;10.980;2023-11-22T15:36:40;3.00;99.90
10968;DHT22;5536;49.602;10.980;2023-11-22T15:39:08;3.00;99.90
10968;DHT22;5536;49.602;10.980;2023-11-22T15:41:42;3.00;99.90
10968;DHT22;5536;49.602;10.980;2023-11-22T15:44:10;2.90;99.90
10968;DHT22;5536;49.602;10.980;2023-11-22T15:46:38;3.00;99.90
10968;DHT22;5536;49.602;10.980;2023-11-22T15:49:06;2.90;99.90
10968;DHT22;5536;49.602;10.980;2023-11-22T15:51:33;3.20;99.90